Sibu Airport
WBGS : now visible

Airfield :











YOU CAN JOIN US ON...

 
LOGIN :

Register | Disclaimer

   EN    FR    IT 

 









Legend :    VFR   Marginal VFR   IFR   Intensive IFR   Very Intensive IFR
Visi :
Ceiling :
>= 8 km
>= 3000ft
5 to 8 km
1000 to 3000 ft
1500m to 5 km
500 to 1000 ft
800 to 1500m
200 to 500 ft
< 800m
< 200 ft
Symbols :   Thunderstorms  Fog  Heavy snow  Heavy precipitations  Wind > 20 kt






- Airport Elevation : 122 ft
- IATA code : SBW


WBGS - Sibu

CURRENT METAR :
  • 062300Z VRB02KT 9999 -RA FEW005 SCT016 BKN150 24/23 Q1010

EXPIRED METARs :
  • 062200Z VRB02KT 9999 FEW005 SCT016 BKN150 25/24 Q1010
  • 062100Z 00000KT 9999 FEW005 SCT016 BKN150 25/24 Q1010

TAF TAF WBGS
Valid from the 07 at 00:00 until the 08 at 00:00 UTC


062300Z 0700/0800 VRB03KT 9999 SCT018
TEMPO 0700/0703 5000 RA FEW005



MET'MAP, your aeronautical weather chart ! - Copyright ORBIFLY December 2007 - Disclaimer

ORBIFLY MET'MAP TEAM :

Programming & Development : Alexandra Zaïnal
Concept & original design : Baudouin d'Aumeries
Assistance for programming : Marc-Olivier Méhu
Technical & hardware support : Manuel Goepfert

Contact : metmap@orbifly.com




SOURCES & CREDITS :

   NOAA       Earth
Advisory